Time;durP1;ratioP1;P1;durP2;ratioP2;P2;SDS_P1;SDS_P2;PMS_P1;PMS_P2;Temp;Humidity;BMP_temperature;BMP_pressure;BME280_temperature;BME280_humidity;BME280_pressure;Samples;Min_cycle;Max_cycle;Signal;HPM_P1;HPM_P2
2022/10/21 00:01:04;;;;;;;32.00;17.73;;;13.70;72.80;;;;;;4978685;28;48497;-82
2022/10/21 00:03:30;;;;;;;27.70;16.27;;;13.70;72.80;;;;;;4995653;28;45937;-83
2022/10/21 00:05:55;;;;;;;33.83;17.27;;;13.70;72.50;;;;;;4977851;28;46897;-82
2022/10/21 00:08:21;;;;;;;36.20;17.63;;;13.70;71.50;;;;;;4995007;28;46425;-83
2022/10/21 00:10:55;;;;;;;28.73;15.80;;;13.70;72.40;;;;;;4978373;28;48431;-83
2022/10/21 00:13:22;;;;;;;28.93;17.67;;;13.70;72.30;;;;;;4978607;28;46695;-83
2022/10/21 00:15:57;;;;;;;31.83;17.30;;;13.70;72.20;;;;;;4992851;28;46896;-83
2022/10/21 00:18:23;;;;;;;27.20;17.73;;;13.60;72.00;;;;;;4976460;28;46200;-84
2022/10/21 00:20:48;;;;;;;32.43;18.00;;;13.70;71.40;;;;;;4992508;28;46648;-82
2022/10/21 00:23:14;;;;;;;28.40;16.30;;;13.40;72.50;;;;;;4995472;28;46409;-83
2022/10/21 00:25:39;;;;;;;29.33;17.03;;;13.70;72.80;;;;;;4977616;28;46403;-84
2022/10/21 00:28:05;;;;;;;29.20;16.50;;;13.70;71.70;;;;;;4995247;28;46815;-84
2022/10/21 00:30:31;;;;;;;28.10;16.30;;;;;;;;;;4976233;28;48186;-83
2022/10/21 00:32:56;;;;;;;25.17;15.70;;;13.70;71.80;;;;;;4975822;28;45861;-83
2022/10/21 00:35:22;;;;;;;30.83;15.70;;;13.60;72.80;;;;;;4976149;28;47811;-83
2022/10/21 00:37:47;;;;;;;29.63;16.83;;;13.80;71.40;;;;;;4991535;28;46429;-84
2022/10/21 00:40:13;;;;;;;32.20;16.03;;;13.80;72.40;;;;;;4997538;28;46616;-82
2022/10/21 00:42:39;;;;;;;28.47;17.70;;;13.80;72.30;;;;;;4986016;28;46746;-83
2022/10/21 00:45:05;;;;;;;28.93;16.90;;;13.90;72.30;;;;;;4979054;28;46307;-83
2022/10/21 00:48:00;;;;;;;27.27;15.90;;;13.90;71.30;;;;;;4994960;28;46476;-83
2022/10/21 00:50:31;;;;;;;30.37;14.87;;;13.90;72.20;;;;;;4977984;28;49401;-82
2022/10/21 00:52:59;;;;;;;25.90;15.97;;;13.80;72.40;;;;;;4977852;28;46738;-85
2022/10/21 00:55:27;;;;;;;34.07;16.00;;;13.80;72.90;;;;;;4971991;28;46819;-84
2022/10/21 00:57:53;;;;;;;28.13;16.73;;;13.60;72.40;;;;;;4968349;28;46512;-83
2022/10/21 01:00:19;;;;;;;31.20;17.10;;;13.60;72.40;;;;;;4972914;28;49611;-83
2022/10/21 01:02:45;;;;;;;32.13;15.90;;;13.60;73.50;;;;;;4971557;28;46552;-83
2022/10/21 01:05:11;;;;;;;25.47;15.90;;;13.70;73.30;;;;;;4990024;28;45888;-83
2022/10/21 01:07:37;;;;;;;39.00;16.23;;;13.80;71.90;;;;;;4973287;28;46323;-83
2022/10/21 01:10:03;;;;;;;26.63;15.70;;;13.80;72.90;;;;;;4971953;28;49039;-83
2022/10/21 01:12:42;;;;;;;27.10;15.67;;;13.80;72.70;;;;;;4980310;28;46513;-83
2022/10/21 01:15:25;;;;;;;27.87;16.40;;;13.80;73.60;;;;;;4992309;28;45785;-83
2022/10/21 01:18:03;;;;;;;29.53;17.00;;;13.80;71.30;;;;;;4973994;28;45877;-82
2022/10/21 01:20:50;;;;;;;30.10;16.37;;;13.80;72.30;;;;;;4973103;28;48163;-83
2022/10/21 01:23:48;;;;;;;24.07;16.23;;;13.70;72.50;;;;;;4991264;28;46386;-83
2022/10/21 01:27:07;;;;;;;32.07;16.63;;;13.70;72.90;;;;;;4989553;28;45816;-84
2022/10/21 01:29:41;;;;;;;26.33;15.77;;;13.70;72.10;;;;;;4978769;28;47342;-83
2022/10/21 01:32:15;;;;;;;28.97;16.90;;;13.60;73.30;;;;;;4977127;28;47946;-83
2022/10/21 01:34:48;;;;;;;35.67;16.47;;;13.60;72.40;;;;;;4975506;28;45806;-82
2022/10/21 01:37:23;;;;;;;37.83;16.00;;;13.60;73.10;;;;;;4992461;28;45786;-84
2022/10/21 01:40:02;;;;;;;35.33;18.27;;;13.60;74.10;;;;;;4994685;28;46765;-83
2022/10/21 01:42:44;;;;;;;37.57;16.90;;;13.60;74.10;;;;;;4994715;28;46574;-83
2022/10/21 01:45:13;;;;;;;27.97;16.87;;;13.60;74.30;;;;;;4974618;28;46919;-83
2022/10/21 01:48:07;;;;;;;31.47;16.90;;;13.70;73.50;;;;;;4993196;28;46319;-84
2022/10/21 01:50:41;;;;;;;27.93;16.40;;;13.70;74.50;;;;;;4985079;28;46403;-84
2022/10/21 01:53:11;;;;;;;27.83;16.40;;;13.80;74.10;;;;;;4972765;28;48013;-84
2022/10/21 01:55:38;;;;;;;29.90;16.73;;;13.90;73.90;;;;;;4973371;28;46450;-84
2022/10/21 01:58:10;;;;;;;33.13;15.60;;;14.00;72.80;;;;;;4972886;28;46528;-84
2022/10/21 02:00:36;;;;;;;24.97;14.97;;;14.00;73.60;;;;;;4975190;28;46493;-83
2022/10/21 02:03:08;;;;;;;30.53;16.20;;;13.90;73.50;;;;;;4992492;28;46501;-83
2022/10/21 02:05:34;;;;;;;29.60;16.30;;;13.90;73.60;;;;;;4973365;28;46474;-83
2022/10/21 02:07:59;;;;;;;33.97;16.77;;;13.90;73.20;;;;;;4990145;28;46385;-83
2022/10/21 02:10:28;;;;;;;31.83;16.23;;;14.00;74.40;;;;;;4993395;28;46461;-81
2022/10/21 02:12:57;;;;;;;31.13;15.40;;;14.00;74.50;;;;;;4972080;28;48044;-83
2022/10/21 02:15:24;;;;;;;25.37;16.17;;;14.10;74.20;;;;;;4992347;28;46615;-83
2022/10/21 02:18:02;;;;;;;33.20;16.13;;;14.10;73.70;;;;;;4974304;28;45911;-83
2022/10/21 02:20:30;;;;;;;30.87;15.43;;;14.20;73.30;;;;;;4973989;28;46362;-83
2022/10/21 02:22:56;;;;;;;26.10;15.93;;;14.20;73.00;;;;;;4991831;28;47636;-84
2022/10/21 02:25:27;;;;;;;25.17;15.37;;;14.30;74.00;;;;;;4974643;28;46517;-83
2022/10/21 02:27:53;;;;;;;25.07;15.13;;;14.30;71.80;;;;;;4974553;28;46458;-84
2022/10/21 02:30:20;;;;;;;27.57;15.00;;;14.30;72.90;;;;;;4990577;28;46678;-83
2022/10/21 02:32:59;;;;;;;25.13;14.93;;;14.30;72.70;;;;;;4973971;28;48214;-83
2022/10/21 02:35:28;;;;;;;29.50;14.40;;;14.30;72.60;;;;;;4991634;28;46404;-84
2022/10/21 02:37:59;;;;;;;22.53;14.43;;;14.40;71.70;;;;;;4992699;28;46476;-84
2022/10/21 02:40:35;;;;;;;28.10;15.47;;;14.40;72.80;;;;;;4974006;28;47209;-84
2022/10/21 02:43:10;;;;;;;26.00;14.10;;;14.30;72.70;;;;;;4980662;28;49109;-83
2022/10/21 02:45:38;;;;;;;28.33;14.90;;;14.30;73.00;;;;;;4974838;28;47011;-84
2022/10/21 02:48:04;;;;;;;74.43;36.53;;;14.40;73.20;;;;;;4991815;28;46878;-83
2022/10/21 02:50:30;;;;;;;25.83;13.50;;;14.30;73.30;;;;;;4974154;28;46500;-83
2022/10/21 02:52:55;;;;;;;19.53;13.30;;;14.30;73.70;;;;;;4976461;28;48277;-82
2022/10/21 02:55:21;;;;;;;19.33;13.30;;;14.30;74.00;;;;;;4974459;28;46410;-83
2022/10/21 02:57:46;;;;;;;21.60;14.23;;;14.30;73.80;;;;;;4977223;28;46518;-83
2022/10/21 03:00:12;;;;;;;19.67;12.97;;;14.40;73.60;;;;;;4981798;28;45984;-83
2022/10/21 03:02:38;;;;;;;26.70;14.40;;;14.30;74.00;;;;;;4994494;28;47735;-83
2022/10/21 03:05:04;;;;;;;21.13;14.33;;;14.20;74.30;;;;;;4991855;28;46871;-83
2022/10/21 03:07:29;;;;;;;23.60;13.30;;;14.20;74.40;;;;;;4992167;28;46355;-83
2022/10/21 03:09:55;;;;;;;27.60;14.20;;;14.10;74.40;;;;;;4992723;28;45987;-83
2022/10/21 03:12:20;;;;;;;31.63;14.73;;;14.20;74.50;;;;;;4974114;28;48020;-83
2022/10/21 03:14:46;;;;;;;31.10;15.67;;;14.20;74.40;;;;;;4990063;28;46460;-83
2022/10/21 03:17:11;;;;;;;24.27;14.57;;;14.10;74.30;;;;;;4975192;28;46730;-83
2022/10/21 03:19:37;;;;;;;22.83;13.80;;;14.10;74.30;;;;;;4991093;28;46415;-83
2022/10/21 03:22:02;;;;;;;23.50;12.90;;;14.10;74.10;;;;;;4990002;28;48302;-83
2022/10/21 03:24:28;;;;;;;24.67;14.53;;;14.20;74.00;;;;;;4973062;28;46632;-83
2022/10/21 03:26:53;;;;;;;31.33;18.17;;;14.20;73.80;;;;;;4991689;28;46569;-83
2022/10/21 03:29:19;;;;;;;22.80;14.63;;;14.10;74.00;;;;;;4972825;28;46874;-84
2022/10/21 03:31:44;;;;;;;28.93;15.97;;;14.10;74.40;;;;;;4974405;28;49042;-83
2022/10/21 03:34:10;;;;;;;27.30;15.43;;;14.00;74.50;;;;;;4972391;28;46490;-82
2022/10/21 03:36:35;;;;;;;25.43;14.77;;;14.00;74.70;;;;;;4974904;28;46994;-83
2022/10/21 03:39:01;;;;;;;31.13;15.53;;;13.90;74.90;;;;;;4971332;28;46612;-82
2022/10/21 03:41:26;;;;;;;29.53;14.03;;;13.90;75.00;;;;;;4990254;28;48176;-83
2022/10/21 03:43:52;;;;;;;33.07;18.20;;;14.00;74.60;;;;;;4980937;28;48286;-83
2022/10/21 03:46:17;;;;;;;43.20;20.83;;;14.00;74.30;;;;;;4990688;28;46421;-84
2022/10/21 03:48:43;;;;;;;36.37;19.47;;;14.00;74.10;;;;;;4974864;28;46693;-83
2022/10/21 03:51:08;;;;;;;36.60;20.87;;;13.90;74.40;;;;;;4993025;28;46587;-82
2022/10/21 03:53:34;;;;;;;29.77;19.50;;;13.80;74.70;;;;;;4976286;28;46720;-83
2022/10/21 03:55:59;;;;;;;33.00;17.30;;;13.70;75.10;;;;;;4974108;28;47691;-83
2022/10/21 03:58:25;;;;;;;46.17;24.30;;;13.60;75.50;;;;;;4992674;28;45833;-83
2022/10/21 04:00:51;;;;;;;35.13;20.00;;;13.50;75.90;;;;;;4992909;28;46530;-83
2022/10/21 04:03:17;;;;;;;40.50;19.70;;;13.40;76.00;;;;;;4972843;28;46880;-82
2022/10/21 04:05:43;;;;;;;30.83;18.33;;;13.40;76.00;;;;;;4973504;28;46437;-82
2022/10/21 04:08:08;;;;;;;27.47;13.40;;;13.30;75.50;;;;;;4983461;28;46546;-84
2022/10/21 04:10:34;;;;;;;29.50;13.60;;;13.20;75.60;;;;;;4990702;28;48361;-84
2022/10/21 04:13:00;;;;;;;20.63;13.33;;;13.10;77.40;;;;;;5005065;28;46409;-84
2022/10/21 04:15:26;;;;;;;28.10;14.03;;;13.00;77.60;;;;;;4992353;28;46408;-84
2022/10/21 04:17:51;;;;;;;21.20;13.50;;;12.90;77.70;;;;;;5003588;28;46323;-83
2022/10/21 04:20:17;;;;;;;21.33;13.73;;;12.90;78.10;;;;;;4999110;28;48216;-83
2022/10/21 04:22:43;;;;;;;25.37;14.67;;;12.80;78.20;;;;;;4992087;28;46862;-83
2022/10/21 04:25:08;;;;;;;25.40;15.00;;;12.80;78.20;;;;;;4970841;28;46737;-83
2022/10/21 04:27:34;;;;;;;41.50;14.27;;;12.80;76.70;;;;;;4987429;28;46219;-83
2022/10/21 04:29:59;;;;;;;23.90;13.83;;;12.80;77.70;;;;;;4987512;28;47920;-84
2022/10/21 04:32:25;;;;;;;26.47;14.10;;;12.80;77.60;;;;;;4988484;28;46195;-85
2022/10/21 04:34:50;;;;;;;27.00;14.00;;;12.80;77.60;;;;;;5005046;28;46387;-84
2022/10/21 04:37:16;;;;;;;23.43;14.87;;;12.80;76.20;;;;;;5006345;28;46022;-84
2022/10/21 04:39:41;;;;;;;26.80;14.63;;;12.80;77.40;;;;;;4987377;28;48468;-84
2022/10/21 04:42:07;;;;;;;32.13;17.53;;;12.80;77.10;;;;;;5003686;28;46422;-83
2022/10/21 04:44:33;;;;;;;28.83;14.23;;;12.80;77.10;;;;;;4988123;28;46562;-84
2022/10/21 04:46:58;;;;;;;24.70;14.10;;;12.70;77.00;;;;;;4987412;28;46354;-84
2022/10/21 04:49:24;;;;;;;27.70;13.80;;;12.70;76.20;;;;;;4978402;28;47926;-83
2022/10/21 04:51:49;;;;;;;22.63;13.37;;;12.70;77.40;;;;;;4976182;28;46517;-82
2022/10/21 04:54:15;;;;;;;22.30;13.70;;;12.70;77.50;;;;;;4978940;28;49399;-84
2022/10/21 04:56:41;;;;;;;25.97;15.23;;;12.70;77.40;;;;;;4973758;28;46389;-83
2022/10/21 04:59:07;;;;;;;35.43;15.90;;;12.70;76.40;;;;;;4974824;28;48411;-83
2022/10/21 05:01:33;;;;;;;29.60;16.17;;;12.70;77.60;;;;;;4974288;28;46876;-84
2022/10/21 05:03:58;;;;;;;28.63;16.87;;;12.70;77.60;;;;;;4972251;28;46398;-82
2022/10/21 05:06:24;;;;;;;28.90;17.67;;;12.70;77.60;;;;;;4993428;28;45925;-83
2022/10/21 05:08:49;;;;;;;25.37;15.97;;;12.70;77.60;;;;;;4990443;28;46366;-82
2022/10/21 05:11:15;;;;;;;28.73;15.77;;;12.80;77.30;;;;;;4990631;28;50819;-83
2022/10/21 05:13:40;;;;;;;24.10;14.53;;;12.90;77.00;;;;;;4974536;28;46344;-82
2022/10/21 05:16:06;;;;;;;24.70;13.73;;;13.00;76.70;;;;;;4989761;28;46014;-83
2022/10/21 05:18:31;;;;;;;24.33;13.70;;;13.00;76.50;;;;;;4992989;28;48990;-82
2022/10/21 05:20:58;;;;;;;21.30;14.03;;;13.00;76.10;;;;;;4975130;28;46789;-84
2022/10/21 05:23:25;;;;;;;22.30;12.90;;;13.00;75.90;;;;;;4977158;28;46379;-83
2022/10/21 05:25:50;;;;;;;20.83;12.43;;;13.10;75.70;;;;;;4980510;28;46643;-83
2022/10/21 05:28:17;;;;;;;21.63;14.60;;;13.20;74.30;;;;;;4972682;28;48215;-83
2022/10/21 05:30:43;;;;;;;21.03;12.07;;;13.20;75.20;;;;;;4973233;28;45872;-83
2022/10/21 05:33:09;;;;;;;21.37;12.80;;;13.20;75.00;;;;;;4973827;28;46415;-83
2022/10/21 05:35:34;;;;;;;22.90;12.20;;;13.30;74.90;;;;;;4973874;28;47342;-82
2022/10/21 05:38:00;;;;;;;21.13;12.07;;;13.30;73.70;;;;;;4971742;28;48186;-82
2022/10/21 05:40:26;;;;;;;18.80;12.30;;;13.30;74.70;;;;;;4972700;28;46192;-83
2022/10/21 05:42:51;;;;;;;19.33;12.80;;;13.20;75.00;;;;;;4972600;28;46457;-83
2022/10/21 05:45:17;;;;;;;22.83;12.37;;;13.20;75.40;;;;;;4973595;28;46631;-83
2022/10/21 05:47:43;;;;;;;16.73;11.93;;;13.20;75.60;;;;;;4988590;28;46998;-82
2022/10/21 05:50:10;;;;;;;26.47;14.00;;;13.20;75.50;;;;;;4972391;28;46622;-82
2022/10/21 05:52:35;;;;;;;22.33;13.00;;;13.30;75.20;;;;;;4990918;28;46407;-83
2022/10/21 05:55:01;;;;;;;26.73;14.60;;;13.40;74.80;;;;;;4973161;28;46610;-84
2022/10/21 05:57:26;;;;;;;20.80;13.20;;;13.40;73.50;;;;;;4973844;28;48491;-83
2022/10/21 05:59:52;;;;;;;17.20;12.50;;;;;;;;;;4992834;28;46872;-83
2022/10/21 06:02:18;;;;;;;25.13;14.90;;;13.40;73.60;;;;;;4991281;28;46372;-84
2022/10/21 06:04:43;;;;;;;21.60;13.00;;;13.40;74.60;;;;;;4989242;28;46576;-82
2022/10/21 06:07:09;;;;;;;19.53;12.40;;;13.50;74.60;;;;;;4974880;28;48953;-86
2022/10/21 06:09:36;;;;;;;20.10;12.37;;;13.50;73.50;;;;;;4989233;28;46200;-84
2022/10/21 06:12:02;;;;;;;21.83;12.87;;;13.50;74.20;;;;;;4971333;28;46510;-85
2022/10/21 06:14:28;;;;;;;21.37;12.70;;;13.60;74.20;;;;;;4992969;28;46949;-85
2022/10/21 06:16:54;;;;;;;19.10;12.07;;;15.60;76.20;;;;;;4969429;28;49384;-85
2022/10/21 06:19:19;;;;;;;19.13;11.80;;;13.50;73.10;;;;;;4972180;28;46562;-84
2022/10/21 06:21:47;;;;;;;20.47;14.20;;;13.60;74.40;;;;;;4981446;28;47094;-84
2022/10/21 06:24:12;;;;;;;21.07;13.13;;;13.50;74.70;;;;;;4976587;28;46385;-82
2022/10/21 06:26:38;;;;;;;18.37;12.80;;;13.50;75.00;;;;;;4991570;28;46514;-83
2022/10/21 06:29:03;;;;;;;19.97;11.60;;;13.40;75.10;;;;;;4975951;28;46521;-85
2022/10/21 06:31:29;;;;;;;20.33;11.57;;;13.40;75.10;;;;;;4972949;28;46467;-87
2022/10/21 06:33:54;;;;;;;17.50;10.80;;;13.40;75.40;;;;;;4992132;28;46395;-83
2022/10/21 06:36:20;;;;;;;18.73;11.30;;;13.30;75.80;;;;;;4992811;28;46635;-85
2022/10/21 06:38:45;;;;;;;16.90;11.13;;;13.30;75.20;;;;;;4973182;28;46434;-82
2022/10/21 06:41:13;;;;;;;23.40;11.80;;;13.30;76.30;;;;;;4993479;28;46116;-83
2022/10/21 06:43:39;;;;;;;22.67;12.53;;;13.20;76.30;;;;;;4993634;28;46441;-82
2022/10/21 06:46:07;;;;;;;17.33;11.30;;;13.40;76.20;;;;;;4991247;28;47252;-84
2022/10/21 06:48:33;;;;;;;17.83;10.30;;;13.40;75.90;;;;;;4988511;28;46899;-83
2022/10/21 06:51:00;;;;;;;23.80;11.20;;;13.50;75.80;;;;;;4989549;28;46350;-83
2022/10/21 06:53:27;;;;;;;19.30;10.80;;;13.50;75.80;;;;;;4971918;28;46759;-84
2022/10/21 06:56:00;;;;;;;14.90;11.10;;;13.50;75.80;;;;;;4991650;28;47489;-83
2022/10/21 06:58:25;;;;;;;21.13;9.50;;;13.60;74.70;;;;;;4989114;28;46847;-84
2022/10/21 07:00:51;;;;;;;17.10;9.37;;;13.70;75.80;;;;;;4974210;28;47027;-83
2022/10/21 07:03:16;;;;;;;34.77;17.57;;;13.70;75.30;;;;;;4989911;28;46427;-84
2022/10/21 07:05:42;;;;;;;27.43;14.67;;;13.80;74.80;;;;;;4975986;28;55346;-82
2022/10/21 07:08:07;;;;;;;20.50;11.10;;;13.90;74.20;;;;;;4979454;28;46550;-81
2022/10/21 07:10:33;;;;;;;14.90;10.70;;;14.10;73.80;;;;;;4972472;28;48694;-85
2022/10/21 07:12:58;;;;;;;16.10;11.00;;;14.20;73.60;;;;;;4975208;28;46417;-84
2022/10/21 07:15:24;;;;;;;18.67;11.00;;;14.30;73.10;;;;;;4980799;28;58115;-83
2022/10/21 07:17:49;;;;;;;19.13;10.20;;;14.40;72.70;;;;;;4991953;28;46554;-83
2022/10/21 07:20:15;;;;;;;14.67;9.73;;;14.50;72.50;;;;;;4993378;28;48457;-83
2022/10/21 07:22:40;;;;;;;23.63;11.47;;;14.50;72.50;;;;;;4977241;28;47038;-83
2022/10/21 07:25:07;;;;;;;23.23;11.03;;;14.50;72.60;;;;;;4973289;28;49455;-82
2022/10/21 07:27:32;;;;;;;17.57;10.90;;;14.60;71.40;;;;;;4975150;28;46402;-84
2022/10/21 07:29:58;;;;;;;24.50;11.57;;;14.60;72.40;;;;;;4976108;28;46633;-83
2022/10/21 07:32:23;;;;;;;17.37;9.30;;;14.80;72.10;;;;;;4992241;28;46296;-83
2022/10/21 07:34:49;;;;;;;16.70;10.20;;;14.90;71.70;;;;;;4992288;28;47736;-83
2022/10/21 07:37:15;;;;;;;17.50;10.03;;;15.00;70.40;;;;;;4973612;28;46875;-83
2022/10/21 07:39:40;;;;;;;17.63;9.00;;;15.10;70.40;;;;;;4976249;28;45980;-84
2022/10/21 07:42:08;;;;;;;13.80;9.03;;;15.10;71.60;;;;;;4990552;28;46394;-82
2022/10/21 07:44:33;;;;;;;15.50;9.00;;;15.00;72.00;;;;;;4989383;28;47481;-85
2022/10/21 07:46:59;;;;;;;14.60;8.47;;;15.00;72.20;;;;;;4974974;28;53076;-85
2022/10/21 07:49:24;;;;;;;13.17;8.53;;;15.00;71.20;;;;;;4991715;28;46403;-83
2022/10/21 07:51:50;;;;;;;16.20;8.20;;;15.00;71.20;;;;;;4975047;28;46640;-82
2022/10/21 07:54:17;;;;;;;13.60;8.73;;;15.00;72.50;;;;;;4972977;28;48342;-82
2022/10/21 07:56:46;;;;;;;12.77;8.50;;;15.10;72.90;;;;;;4972927;28;46424;-80
2022/10/21 07:59:12;;;;;;;19.27;8.53;;;15.10;72.60;;;;;;4988074;28;46585;-81
2022/10/21 08:01:42;;;;;;;16.50;8.57;;;15.10;72.80;;;;;;4990111;28;46475;-85
2022/10/21 08:04:09;;;;;;;13.37;8.50;;;15.20;72.50;;;;;;4990410;28;46537;-84
2022/10/21 08:06:34;;;;;;;18.60;9.20;;;15.30;72.30;;;;;;4977246;28;46504;-83
2022/10/21 08:09:01;;;;;;;21.53;8.63;;;15.50;70.60;;;;;;4971675;28;46375;-84
2022/10/21 08:11:29;;;;;;;19.73;8.43;;;15.50;71.60;;;;;;4983890;28;46699;-85
2022/10/21 08:13:56;;;;;;;18.30;8.17;;;15.70;70.80;;;;;;5015282;28;46717;-82
2022/10/21 08:16:22;;;;;;;15.37;7.43;;;15.70;70.50;;;;;;4997672;28;45894;-85
2022/10/21 08:18:48;;;;;;;10.87;7.87;;;15.70;70.70;;;;;;4997875;28;45948;-85
2022/10/21 08:21:14;;;;;;;19.47;7.67;;;15.80;71.10;;;;;;5016483;28;45910;-84
2022/10/21 08:23:39;;;;;;;17.70;7.47;;;15.80;70.70;;;;;;4997546;28;48126;-84
2022/10/21 08:26:08;;;;;;;17.63;8.20;;;16.00;70.00;;;;;;4987149;28;45985;-87
2022/10/21 08:28:34;;;;;;;13.60;8.00;;;16.00;70.00;;;;;;4978239;28;46492;-86
2022/10/21 08:31:09;;;;;;;12.97;7.13;;;15.90;69.90;;;;;;4977988;28;46018;-87
2022/10/21 08:33:35;;;;;;;11.73;7.73;;;15.90;69.90;;;;;;4991991;28;48588;-85
2022/10/21 08:36:12;;;;;;;14.87;7.80;;;15.90;69.90;;;;;;4994205;28;46401;-85
2022/10/21 08:38:37;;;;;;;13.10;8.13;;;15.90;69.90;;;;;;4976748;28;45876;-85
2022/10/21 08:41:20;;;;;;;11.90;8.17;;;15.90;69.90;;;;;;5001159;28;46482;-85
2022/10/21 08:43:46;;;;;;;13.50;8.40;;;15.80;69.80;;;;;;4982215;28;49459;-82
2022/10/21 08:46:23;;;;;;;15.20;7.93;;;15.70;69.80;;;;;;4978766;28;46767;-84
2022/10/21 08:49:01;;;;;;;11.07;7.70;;;15.60;69.60;;;;;;4980616;28;46409;-84
2022/10/21 08:51:32;;;;;;;19.70;8.80;;;15.40;69.40;;;;;;4999006;28;46919;-83
2022/10/21 08:54:03;;;;;;;21.20;8.10;;;15.40;70.40;;;;;;4997233;28;47395;-84
2022/10/21 08:56:30;;;;;;;23.10;13.33;;;15.30;70.50;;;;;;4982639;28;46469;-86
2022/10/21 08:58:56;;;;;;;23.03;8.93;;;15.20;70.60;;;;;;4978834;28;45861;-85
2022/10/21 09:01:50;;;;;;;16.67;7.50;;;15.20;71.00;;;;;;4981627;28;46688;-86
2022/10/21 09:04:47;;;;;;;14.47;8.00;;;15.20;70.60;;;;;;4975288;28;48311;-85
2022/10/21 09:07:43;;;;;;;13.03;8.00;;;15.30;70.30;;;;;;4965489;28;46358;-84
2022/10/21 09:10:15;;;;;;;23.40;8.93;;;15.00;71.00;;;;;;4992978;28;45928;-84
2022/10/21 09:12:55;;;;;;;18.07;9.23;;;14.90;72.10;;;;;;4972265;28;46485;-84
2022/10/21 09:15:20;;;;;;;16.03;9.87;;;15.00;72.70;;;;;;4989979;28;46508;-84
2022/10/21 09:18:29;;;;;;;13.93;9.00;;;14.30;72.00;;;;;;4989516;28;46762;-86
2022/10/21 09:21:14;;;;;;;15.67;8.93;;;14.90;72.30;;;;;;4973774;28;46951;-85
2022/10/21 09:23:52;;;;;;;21.30;9.33;;;14.90;72.20;;;;;;4993571;28;46516;-87
2022/10/21 09:26:40;;;;;;;14.40;9.13;;;14.80;72.30;;;;;;4976224;28;48460;-87
2022/10/21 09:29:29;;;;;;;16.03;9.50;;;14.70;72.70;;;;;;4971282;28;46477;-86
2022/10/21 09:32:10;;;;;;;18.33;9.00;;;14.70;73.50;;;;;;4961255;28;46448;-87
2022/10/21 09:35:18;;;;;;;15.23;8.70;;;14.70;73.20;;;;;;4984115;28;46147;-87
2022/10/21 09:37:51;;;;;;;16.10;9.43;;;14.90;71.80;;;;;;4950428;28;48075;-85
2022/10/21 09:40:20;;;;;;;17.90;9.60;;;15.00;72.80;;;;;;4991757;28;47072;-87
2022/10/21 09:42:49;;;;;;;15.40;9.63;;;15.10;72.30;;;;;;4971607;28;46015;-85
2022/10/21 09:45:36;;;;;;;15.93;9.77;;;15.20;72.00;;;;;;4972752;28;45912;-83
2022/10/21 09:48:11;;;;;;;24.07;9.53;;;15.20;71.70;;;;;;4992549;28;46474;-85
2022/10/21 09:50:37;;;;;;;18.10;11.23;;;15.30;71.60;;;;;;4979107;28;47009;-85
2022/10/21 09:53:12;;;;;;;20.90;11.43;;;15.40;71.30;;;;;;4979914;28;46511;-85
2022/10/21 09:55:39;;;;;;;15.33;11.13;;;15.60;70.80;;;;;;4985712;28;46579;-84
2022/10/21 09:58:04;;;;;;;23.43;11.37;;;15.70;70.10;;;;;;4996417;28;46672;-85
2022/10/21 10:00:48;;;;;;;21.93;11.30;;;15.80;70.10;;;;;;4997271;28;46200;-86
2022/10/21 10:03:41;;;;;;;21.17;11.90;;;16.00;70.00;;;;;;4997487;28;46684;-83
2022/10/21 10:06:07;;;;;;;22.10;10.70;;;16.10;70.00;;;;;;4994075;28;46520;-85
2022/10/21 10:08:46;;;;;;;17.30;10.77;;;16.30;69.60;;;;;;4996253;28;47739;-85
2022/10/21 10:11:13;;;;;;;25.63;12.97;;;16.50;69.10;;;;;;4977201;28;45883;-83
2022/10/21 10:13:49;;;;;;;15.80;10.30;;;16.50;69.00;;;;;;4978321;28;45858;-84
2022/10/21 10:16:14;;;;;;;22.40;10.20;;;16.30;69.40;;;;;;4979673;28;46523;-84
2022/10/21 10:18:41;;;;;;;20.63;10.50;;;16.20;68.40;;;;;;4979829;28;47977;-82
2022/10/21 10:21:17;;;;;;;15.83;9.83;;;16.20;69.70;;;;;;4998886;28;46443;-81
2022/10/21 10:23:51;;;;;;;19.60;12.20;;;16.10;70.00;;;;;;4979350;28;46463;-83
2022/10/21 10:26:27;;;;;;;19.70;9.70;;;16.20;69.60;;;;;;4977696;28;46726;-84
2022/10/21 10:28:57;;;;;;;17.27;10.43;;;16.40;69.40;;;;;;4977812;28;48591;-84
2022/10/21 10:31:34;;;;;;;22.13;10.77;;;16.60;68.70;;;;;;4993941;28;46474;-85
2022/10/21 10:34:04;;;;;;;15.50;9.20;;;16.70;68.20;;;;;;4975812;28;46438;-85
2022/10/21 10:36:38;;;;;;;19.47;10.30;;;16.60;68.00;;;;;;4997078;28;46150;-83
2022/10/21 10:39:15;;;;;;;26.03;10.13;;;16.50;68.60;;;;;;4993827;28;48282;-82
2022/10/21 10:41:46;;;;;;;24.77;11.03;;;16.50;68.80;;;;;;4979272;28;46905;-83
2022/10/21 10:44:41;;;;;;;28.30;12.83;;;16.60;68.60;;;;;;4999226;28;46455;-83
2022/10/21 10:47:16;;;;;;;41.10;29.67;;;16.70;68.30;;;;;;4978731;28;46997;-84
2022/10/21 10:49:42;;;;;;;31.73;15.63;;;16.80;67.00;;;;;;4994553;28;47552;-83
2022/10/21 10:52:11;;;;;;;25.50;14.80;;;16.80;68.20;;;;;;4979501;28;46773;-83
2022/10/21 10:54:38;;;;;;;16.97;11.93;;;16.80;68.00;;;;;;4977267;28;46387;-83
2022/10/21 10:57:24;;;;;;;15.90;10.23;;;18.00;69.40;;;;;;4976287;28;46380;-83
2022/10/21 11:00:00;;;;;;;16.13;9.77;;;16.70;68.40;;;;;;4973889;28;47972;-85
2022/10/21 11:02:44;;;;;;;18.77;8.17;;;16.90;68.70;;;;;;4974138;28;47040;-83
2022/10/21 11:05:12;;;;;;;14.40;8.57;;;16.90;68.30;;;;;;4976270;28;46497;-84
2022/10/21 11:07:49;;;;;;;13.57;7.60;;;17.10;66.70;;;;;;4980453;28;46717;-84
2022/10/21 11:10:40;;;;;;;12.30;8.00;;;17.10;67.60;;;;;;4990860;28;47337;-81
2022/10/21 11:13:13;;;;;;;15.43;7.87;;;17.20;67.60;;;;;;4991266;28;46510;-83
2022/10/21 11:16:01;;;;;;;17.40;8.47;;;17.40;67.10;;;;;;4991151;28;46734;-83
2022/10/21 11:18:56;;;;;;;12.80;7.33;;;17.50;65.80;;;;;;4992232;28;46113;-85
2022/10/21 11:21:37;;;;;;;21.13;9.00;;;17.40;66.80;;;;;;4974306;28;48136;-84
2022/10/21 11:24:15;;;;;;;14.80;8.60;;;17.50;66.90;;;;;;4978114;28;46947;-83
2022/10/21 11:26:49;;;;;;;27.30;9.13;;;17.70;66.30;;;;;;4976053;28;46771;-83
2022/10/21 11:29:38;;;;;;;15.13;8.00;;;18.00;67.00;;;;;;4994731;28;45793;-85
2022/10/21 11:32:22;;;;;;;13.23;8.00;;;18.10;65.30;;;;;;4994721;28;47435;-84
2022/10/21 11:35:00;;;;;;;12.43;8.13;;;18.20;65.20;;;;;;4995184;28;45920;-83
2022/10/21 11:37:57;;;;;;;15.40;7.07;;;18.20;64.70;;;;;;4975635;28;46369;-83
2022/10/21 11:40:28;;;;;;;11.83;7.60;;;18.20;65.50;;;;;;4974202;28;46851;-83
2022/10/21 11:42:55;;;;;;;10.40;5.73;;;18.30;65.50;;;;;;4993100;28;46456;-83
2022/10/21 11:45:27;;;;;;;12.27;5.90;;;18.50;65.20;;;;;;4974758;28;46729;-83
2022/10/21 11:48:16;;;;;;;14.23;5.93;;;18.50;65.00;;;;;;4974987;28;46462;-83
2022/10/21 11:51:25;;;;;;;11.13;5.80;;;18.40;65.00;;;;;;4989860;28;45840;-83
2022/10/21 11:54:18;;;;;;;11.77;5.27;;;18.60;64.70;;;;;;4973644;28;49246;-83
2022/10/21 11:56:59;;;;;;;8.63;4.13;;;18.60;64.30;;;;;;4974616;28;46771;-83
2022/10/21 11:59:51;;;;;;;20.63;9.97;;;18.80;64.10;;;;;;4974632;28;46532;-83
2022/10/21 12:02:27;;;;;;;12.93;6.03;;;18.90;63.70;;;;;;4971388;28;47007;-83
2022/10/21 12:05:20;;;;;;;9.30;4.40;;;18.90;63.00;;;;;;4975285;28;47955;-83
2022/10/21 12:08:01;;;;;;;10.77;4.97;;;19.00;62.70;;;;;;4965789;28;46386;-83
2022/10/21 12:10:35;;;;;;;7.63;4.00;;;19.00;62.50;;;;;;4991443;28;47468;-83
2022/10/21 12:13:12;;;;;;;10.23;5.17;;;19.00;62.30;;;;;;4991438;28;46474;-83
2022/10/21 12:15:42;;;;;;;7.57;4.63;;;19.00;63.50;;;;;;4989949;28;46964;-83
2022/10/21 12:18:14;;;;;;;18.97;4.93;;;19.00;62.30;;;;;;4979519;28;46578;-84
2022/10/21 12:20:41;;;;;;;14.33;3.80;;;19.10;62.90;;;;;;4977078;28;46731;-81
2022/10/21 12:23:12;;;;;;;15.70;4.40;;;19.00;62.10;;;;;;4997291;28;46674;-80
2022/10/21 12:25:43;;;;;;;7.57;3.47;;;18.90;62.20;;;;;;4973051;28;48461;-84
2022/10/21 12:28:17;;;;;;;9.00;2.93;;;18.80;62.20;;;;;;4993397;28;46799;-83
2022/10/21 12:30:49;;;;;;;10.37;3.83;;;18.80;62.20;;;;;;4974564;28;45860;-84
2022/10/21 12:33:15;;;;;;;7.60;3.07;;;18.90;61.90;;;;;;4974719;28;46458;-83
2022/10/21 12:35:48;;;;;;;8.13;4.50;;;18.90;61.90;;;;;;4973384;28;48349;-83
2022/10/21 12:38:42;;;;;;;13.00;6.80;;;18.90;61.60;;;;;;4987824;28;46965;-83
2022/10/21 12:41:20;;;;;;;4.93;2.97;;;18.90;61.60;;;;;;4990087;28;46513;-85
2022/10/21 12:43:55;;;;;;;17.73;8.60;;;18.80;61.80;;;;;;4973145;28;45939;-85
2022/10/21 12:46:36;;;;;;;6.93;3.50;;;18.70;61.70;;;;;;4989549;28;46837;-85
2022/10/21 12:49:25;;;;;;;8.93;5.30;;;18.70;61.90;;;;;;4988439;28;45827;-85